Nearby METAR Reports

 

KDWH - Houston/Dw Hooks, Texas, USA
Distance from station: WNW 3mi, 6km
Updated: 08/25/2019 11:53am
Mostly cloudy
Mostly cloudy
 Wind from calm
Wind: Calm
Temperature: 90°F , 32°C
Heat Index: 101°F , 38°C
Dew Point: 75°F , 24°C
Humidity: 63%
Barometer: 29.88 inHg , 1011.9 hPa
Clouds: Mostly cloudy
Visibility: 10 miles , 16 km
Cloud details: Mostly cloudy 1900 ft
Mostly cloudy 11000 ft
2019/08/25 16:53 KDWH 251653Z 00000KT 10SM BKN019 BKN110 32/24 A2988 RMK AO2 SLP115 T03220244
KIAH - Houston/Intnl, Texas, USA
Distance from station: ESE 9mi, 14km
Updated: 08/25/2019 12:43pm
Thunderstorm, Mostly cloudy
Thunderstorm, Mostly cloudy
 Wind from NE
Wind: NE 10 mph , 17 km/h
Temperature: 95°F , 35°C
Heat Index: 107°F , 42°C
Dew Point: 75°F , 24°C
Humidity: 53%
Barometer: 29.85 inHg , 1010.8 hPa
Summary: Thunderstorm
Clouds: Mostly cloudy
Visibility: 10 miles , 16 km
Cloud details: Few Clouds 3400 ft
Partly cloudy 7000 ft
Mostly cloudy 10000 ft
Mostly cloudy 15000 ft
Mostly cloudy 25000 ft
2019/08/25 17:43 KIAH 251743Z 05009KT 10SM TS FEW034CB SCT070 BKN100 BKN150 BKN250 35/24 A2985 RMK AO2 LTG DSNT E AND S TSB42 OCNL LTGICCG VC NE-E TS VC NE-E MOV E T03500244
 
KCXO - Conroe, Texas, USA
Distance from station: NNE 21mi, 34km
Updated: 08/25/2019 11:53am
Partly cloudy
Partly cloudy
 Wind from W
Wind: W 3 mph , 6 km/h
Temperature: 82°F , 28°C
Heat Index: 91°F , 33°C
Dew Point: 79°F , 26°C
Humidity: 89%
Barometer: 29.89 inHg , 1012.2 hPa
Clouds: Partly cloudy
Visibility: 10 miles , 16 km
Cloud details: Few Clouds 3900 ft
Few Clouds 6000 ft
Partly cloudy 9000 ft
2019/08/25 16:53 KCXO 251653Z 26003KT 10SM FEW039 FEW060 SCT090 28/26 A2989 RMK AO2 RAB22E41 SLP119 P0002 T02830261 $
KMCJ - Houston/Univ, Texas, USA
Distance from station: SSE 24mi, 39km
Updated: 08/25/2019 12:55pm
Mostly cloudy
Mostly cloudy
 Wind from varies
Wind: varies 12 mph , 19 km/h, Gust: 23 mph , 37 km/h
Temperature: 90°F , 32°C
Heat Index: 101°F , 38°C
Dew Point: 75°F , 24°C
Humidity: 63%
Barometer: 29.85 inHg , 1010.8 hPa
Clouds: Mostly cloudy
Visibility: 9 miles , 14 km
Cloud details: Few Clouds 2300 ft
Partly cloudy 3600 ft
Mostly cloudy 4300 ft
2019/08/25 17:55 KMCJ 251755Z AUTO VRB10G20KT 9SM FEW023 SCT036 BKN043 32/24 A2985 RMK A01
 
KTME - Houston Exec, Texas, USA
Distance from station: SW 30mi, 48km
Updated: 08/25/2019 12:35pm
Partly cloudy
Partly cloudy
 Wind from SW
Wind: SW 13 mph , 20 km/h
Temperature: 90°F , 32°C
Heat Index: 97°F , 36°C
Dew Point: 72°F , 22°C
Humidity: 55%
Barometer: 29.87 inHg , 1011.5 hPa
Clouds: Partly cloudy
Visibility: 10 miles , 16 km
Cloud details: Partly cloudy 3700 ft
Partly cloudy 4500 ft
Partly cloudy 5000 ft
2019/08/25 17:35 KTME 251735Z AUTO 22011KT 10SM SCT037 SCT045 SCT050 32/22 A2987 RMK AO2
KHOU - Houston/Hobby, Texas, USA
Distance from station: SSE 32mi, 51km
Updated: 08/25/2019 12:50pm
Thunderstorm, Mostly cloudy
Thunderstorm, Mostly cloudy
 Wind from S
Wind: S 20 mph , 31 km/h
Temperature: 82°F , 28°C
Heat Index: 87°F , 31°C
Dew Point: 73°F , 23°C
Humidity: 74%
Barometer: 29.86 inHg , 1011.2 hPa
Summary: Thunderstorm
Clouds: Mostly cloudy
Visibility: 10 miles , 16 km
Cloud details: Mostly cloudy 1000 ft
Mostly cloudy 3500 ft
Mostly cloudy 11000 ft
Mostly cloudy 25000 ft
2019/08/25 17:50 KHOU 251750Z 19017KT 10SM TS BKN010 BKN035CB BKN110 BKN250 28/23 A2986 RMK AO2 WSHFT 1735 LTG DSNT ALQDS OCNL LTGICCCCG E-SW TS E-SW MOV NE CB ALQDS $
 
KSGR - Houston/Sugar La, Texas, USA
Distance from station: SSW 32mi, 51km
Updated: 08/25/2019 12:29pm
Nearby thunderstorm, Mostly cloudy
Nearby thunderstorm, Mostly cloudy
 Wind from S
Wind: S 9 mph , 15 km/h
Temperature: 91°F , 33°C
Heat Index: 107°F , 42°C
Dew Point: 79°F , 26°C
Humidity: 67%
Barometer: 29.85 inHg , 1010.8 hPa
Summary: Nearby Thunderstorm
Clouds: Mostly cloudy
Visibility: 10 miles , 16 km
Cloud details: Partly cloudy 3600 ft
Mostly cloudy 4400 ft
Mostly cloudy 6000 ft
2019/08/25 17:29 KSGR 251729Z 19008KT 10SM VCTS SCT036 BKN044 BKN060 33/26 A2985 RMK AO2 LTG DSNT SE-SW T03280256
K6R3 - Cleveland Muni, Texas, USA
Distance from station: NE 36mi, 58km
Updated: 08/25/2019 12:35pm
Partly cloudy
Partly cloudy
 Wind from calm
Wind: Calm
Temperature: 86°F , 30°C
Heat Index: 99°F , 37°C
Dew Point: 79°F , 26°C
Humidity: 79%
Barometer: 29.88 inHg , 1011.9 hPa
Clouds: Partly cloudy
Visibility: 7 miles , 11 km
Cloud details: Partly cloudy 8000 ft
2019/08/25 17:35 K6R3 251735Z AUTO 00000KT 7SM SCT080 30/26 A2988 RMK AO2 LTG DSNT SE THRU SW T02960260
 
KAXH - Houston/Southwst, Texas, USA
Distance from station: S 37mi, 60km
Updated: 08/25/2019 12:35pm

 Wind from S
Wind: S 9 mph , 15 km/h
Visibility: 5 miles , 8 km
2019/08/25 17:35 KAXH 251735Z AUTO 19008KT 5SM -VCTSRA SCT015 BKN025 OVC046 25/25 A2990 RMK AO2 LTG DSNT E THRU W P0006 T02500245
KEFD - Houston/Ellingto, Texas, USA
Distance from station: SSE 37mi, 60km
Updated: 08/25/2019 11:50am
Light rain, Mostly cloudy
Light rain, Mostly cloudy
 Wind from WSW
Wind: WSW 6 mph , 9 km/h
Temperature: 91°F , 33°C
Heat Index: 100°F , 38°C
Dew Point: 73°F , 23°C
Humidity: 56%
Barometer: 29.89 inHg , 1012.2 hPa
Summary: Light rain
Clouds: Mostly cloudy
Visibility: 10 miles , 16 km
Cloud details: Mostly cloudy 3000 ft
Mostly cloudy 10000 ft
Mostly cloudy 25000 ft
2019/08/25 16:50 KEFD 251650Z 25005KT 10SM -RA BKN030 BKN100 BKN250 33/23 A2989
 
KLVJ - Houston, Texas, USA
Distance from station: SSE 40mi, 64km
Updated: 08/25/2019 12:49pm
Nearby thunderstorm, Heavy rain, Mist, Overcast
Nearby thunderstorm, Heavy rain, Mist, Overcast
 Wind from SSW
Wind: SSW 13 mph , 20 km/h, Gust: 21 mph , 33 km/h
Temperature: 77°F , 25°C
Dew Point: 75°F , 24°C
Humidity: 94%
Barometer: 29.91 inHg , 1012.9 hPa
Summary: Nearby thunderstorm, Heavy rain, Mist
Clouds: Overcast
Visibility: 3/4 mile , 1.2 km
Cloud details: Few Clouds 900 ft
Mostly cloudy 2900 ft
Overcast 11000 ft
2019/08/25 17:49 KLVJ 251749Z AUTO 21011G18KT 3/4SM VCTS +RA BR FEW009 BKN029 OVC110 25/24 A2991 RMK AO2 LTG DSNT ALQDS RAB37 SLP128 P0024 60024 T02500239 10322 20250 53003
KUTS - Huntsville, Texas, USA
Distance from station: N 48mi, 78km
Updated: 08/25/2019 12:06pm
Light rain, Mostly cloudy
Light rain, Mostly cloudy
 Wind from calm
Wind: Calm
Temperature: 84°F , 29°C
Heat Index: 92°F , 33°C
Dew Point: 75°F , 24°C
Humidity: 74%
Barometer: 29.88 inHg , 1011.9 hPa
Summary: Light rain
Clouds: Mostly cloudy
Visibility: 3 miles , 5 km
Cloud details: Partly cloudy 3200 ft
Partly cloudy 4800 ft
Mostly cloudy 5500 ft
2019/08/25 17:06 KUTS 251706Z AUTO 00000KT 3SM -RA SCT032 SCT048 BKN055 29/24 A2988 RMK AO2 P0003 T02940244